createdAt,value
2023-02-11T00:00:42.167Z,4.60
2023-02-11T00:03:09.746Z,4.88
2023-02-11T00:05:36.591Z,4.60
2023-02-11T00:08:03.321Z,4.65
2023-02-11T00:10:30.058Z,4.72
2023-02-11T00:12:56.800Z,4.80
2023-02-11T00:15:23.541Z,4.07
2023-02-11T00:17:50.309Z,4.22
2023-02-11T00:20:17.054Z,4.00
2023-02-11T00:22:43.780Z,4.38
2023-02-11T00:25:10.619Z,4.35
2023-02-11T00:27:38.029Z,3.90
2023-02-11T00:30:05.709Z,4.30
2023-02-11T00:32:32.514Z,4.88
2023-02-11T00:34:59.239Z,4.30
2023-02-11T00:37:26.011Z,4.70
2023-02-11T00:39:52.813Z,3.88
2023-02-11T00:42:19.737Z,4.32
2023-02-11T00:44:46.469Z,4.35
2023-02-11T00:47:16.125Z,4.47
2023-02-11T00:49:44.107Z,4.15
2023-02-11T00:52:10.922Z,3.90
2023-02-11T00:54:37.638Z,4.30
2023-02-11T00:57:04.373Z,3.78
2023-02-11T00:59:31.230Z,4.00
2023-02-11T01:01:58.003Z,3.78
2023-02-11T01:04:24.737Z,3.90
2023-02-11T01:06:52.205Z,4.07
2023-02-11T01:09:21.113Z,3.80
2023-02-11T01:11:48.045Z,4.03
2023-02-11T01:14:14.815Z,4.10
2023-02-11T01:16:41.650Z,4.07
2023-02-11T01:19:08.486Z,3.63
2023-02-11T01:21:35.408Z,3.90
2023-02-11T01:24:02.119Z,3.70
2023-02-11T01:26:28.806Z,3.72
2023-02-11T01:28:57.262Z,4.17
2023-02-11T01:31:24.036Z,3.75
2023-02-11T01:33:50.904Z,3.65
2023-02-11T01:36:17.609Z,3.72
2023-02-11T01:38:45.498Z,3.67
2023-02-11T01:41:14.766Z,3.53
2023-02-11T01:46:30.058Z,3.22
2023-02-11T01:48:59.910Z,3.40
2023-02-11T01:51:34.250Z,3.72
2023-02-11T01:54:22.399Z,3.50
2023-02-11T01:57:11.397Z,3.72
2023-02-11T01:59:43.927Z,3.17
2023-02-11T02:02:12.950Z,3.67
2023-02-11T02:04:46.838Z,3.35
2023-02-11T02:07:33.212Z,3.42
2023-02-11T02:10:05.274Z,3.30
2023-02-11T02:12:32.076Z,3.05
2023-02-11T02:15:21.538Z,3.20
2023-02-11T02:18:07.504Z,3.20
2023-02-11T02:21:08.225Z,3.38
2023-02-11T02:24:01.785Z,3.30
2023-02-11T02:26:34.623Z,3.03
2023-02-11T02:29:16.432Z,3.00
2023-02-11T02:31:43.210Z,3.20
2023-02-11T02:34:30.665Z,3.22
2023-02-11T02:37:15.184Z,3.20
2023-02-11T02:39:42.229Z,3.03
2023-02-11T02:42:09.548Z,2.60
2023-02-11T02:44:36.288Z,2.72
2023-02-11T02:47:03.079Z,2.60
2023-02-11T02:49:29.826Z,2.83
2023-02-11T02:52:24.068Z,2.90
2023-02-11T02:55:09.033Z,2.45
2023-02-11T02:57:42.360Z,2.75
2023-02-11T03:00:18.309Z,2.80
2023-02-11T03:02:46.070Z,3.10
2023-02-11T03:05:45.317Z,2.90
2023-02-11T03:08:30.584Z,2.60
2023-02-11T03:10:58.495Z,2.97
2023-02-11T03:13:33.411Z,2.90
2023-02-11T03:16:05.194Z,2.65
2023-02-11T03:18:34.102Z,2.83
2023-02-11T03:21:01.456Z,3.42
2023-02-11T03:23:33.113Z,2.70
2023-02-11T03:26:04.582Z,2.67
2023-02-11T03:28:44.449Z,2.60
2023-02-11T03:31:30.534Z,2.40
2023-02-11T03:34:26.609Z,2.60
2023-02-11T03:37:04.251Z,2.70
2023-02-11T03:39:36.082Z,2.42
2023-02-11T03:42:04.458Z,2.78
2023-02-11T03:44:36.810Z,2.58
2023-02-11T03:47:05.483Z,3.00
2023-02-11T03:49:32.847Z,2.50
2023-02-11T03:52:01.151Z,2.50
2023-02-11T03:54:30.599Z,2.22
2023-02-11T03:56:59.630Z,2.50
2023-02-11T03:59:26.666Z,2.50
2023-02-11T04:01:53.613Z,2.60
2023-02-11T04:04:20.612Z,2.65
2023-02-11T04:06:47.298Z,2.40
2023-02-11T04:09:14.982Z,2.60
2023-02-11T04:11:41.735Z,2.53
2023-02-11T04:14:08.470Z,2.47
2023-02-11T04:16:35.228Z,2.28
2023-02-11T04:19:02.061Z,2.80
2023-02-11T04:21:29.167Z,2.67
2023-02-11T04:23:55.872Z,2.40
2023-02-11T04:26:22.594Z,2.20
2023-02-11T04:28:49.281Z,2.38
2023-02-11T04:31:16.160Z,2.60
2023-02-11T04:33:42.962Z,2.55
2023-02-11T04:36:09.676Z,2.47
2023-02-11T04:38:36.375Z,2.50
2023-02-11T04:41:03.230Z,2.63
2023-02-11T04:43:29.966Z,2.35
2023-02-11T04:45:58.707Z,2.35
2023-02-11T04:48:26.265Z,2.30
2023-02-11T04:50:52.990Z,2.13
2023-02-11T04:53:19.754Z,2.30
2023-02-11T04:55:50.135Z,2.20
2023-02-11T04:58:18.131Z,2.17
2023-02-11T05:00:44.851Z,2.10
2023-02-11T05:03:11.932Z,2.63
2023-02-11T05:05:42.666Z,2.70
2023-02-11T05:08:10.598Z,2.40
2023-02-11T05:10:37.398Z,2.50
2023-02-11T05:13:04.378Z,2.53
2023-02-11T05:15:31.139Z,2.33
2023-02-11T05:17:57.920Z,2.30
2023-02-11T05:20:24.643Z,2.40
2023-02-11T05:22:51.705Z,2.40
2023-02-11T05:25:18.585Z,2.20
2023-02-11T05:27:45.297Z,2.22
2023-02-11T05:30:12.427Z,2.30
2023-02-11T05:32:39.239Z,2.10
2023-02-11T05:35:06.239Z,2.35
2023-02-11T05:37:33.118Z,2.00
2023-02-11T05:39:59.930Z,2.30
2023-02-11T05:42:26.616Z,2.53
2023-02-11T05:44:53.317Z,2.13
2023-02-11T05:47:20.087Z,1.98
2023-02-11T05:49:47.583Z,2.33
2023-02-11T05:52:14.291Z,2.28
2023-02-11T05:54:41.145Z,2.40
2023-02-11T05:57:07.884Z,2.10
2023-02-11T05:59:34.570Z,2.10
2023-02-11T06:02:02.013Z,2.33
2023-02-11T06:04:28.771Z,2.00
2023-02-11T06:06:55.477Z,1.90
2023-02-11T06:09:22.259Z,2.20
2023-02-11T06:11:48.937Z,2.47
2023-02-11T06:14:15.628Z,2.30
2023-02-11T06:16:42.404Z,2.10
2023-02-11T06:19:09.109Z,2.30
2023-02-11T06:21:43.239Z,1.90
2023-02-11T06:24:11.063Z,2.15
2023-02-11T06:26:37.776Z,2.30
2023-02-11T06:29:04.484Z,2.20
2023-02-11T06:31:31.339Z,2.30
2023-02-11T06:33:59.275Z,2.30
2023-02-11T06:36:26.158Z,2.08
2023-02-11T06:38:53.022Z,2.00
2023-02-11T06:41:20.327Z,2.55
2023-02-11T06:43:47.787Z,2.17
2023-02-11T06:46:14.984Z,2.47
2023-02-11T06:48:44.464Z,2.20
2023-02-11T06:51:13.285Z,2.30
2023-02-11T06:53:43.312Z,2.10
2023-02-11T06:56:13.095Z,2.00
2023-02-11T06:58:40.289Z,2.22
2023-02-11T07:01:08.784Z,2.22
2023-02-11T07:03:36.583Z,2.40
2023-02-11T07:06:07.908Z,1.95
2023-02-11T07:08:36.860Z,2.17
2023-02-11T07:11:29.244Z,2.03
2023-02-11T07:14:00.816Z,1.90
2023-02-11T07:16:27.613Z,2.05
2023-02-11T07:18:54.386Z,2.20
2023-02-11T07:21:22.380Z,1.92
2023-02-11T07:23:49.173Z,2.67
2023-02-11T07:26:17.851Z,2.10
2023-02-11T07:28:45.343Z,2.35
2023-02-11T07:31:20.817Z,2.03
2023-02-11T07:33:47.748Z,2.10
2023-02-11T07:36:15.960Z,2.08
2023-02-11T07:38:43.163Z,2.33
2023-02-11T07:41:16.911Z,2.08
2023-02-11T07:43:44.195Z,2.17
2023-02-11T07:46:14.244Z,3.88
2023-02-11T07:48:40.986Z,4.78
2023-02-11T07:51:13.131Z,5.82
2023-02-11T07:53:40.348Z,4.53
2023-02-11T07:56:07.770Z,4.72
2023-02-11T07:58:34.516Z,3.85
2023-02-11T08:01:06.189Z,3.92
2023-02-11T08:03:33.927Z,3.83
2023-02-11T08:06:15.289Z,2.92
2023-02-11T08:08:42.600Z,3.00
2023-02-11T08:11:11.584Z,3.33
2023-02-11T08:13:38.615Z,2.63
2023-02-11T08:16:06.134Z,2.65
2023-02-11T08:18:33.969Z,2.55
2023-02-11T08:21:08.359Z,2.40
2023-02-11T08:23:39.784Z,2.60
2023-02-11T08:26:09.083Z,2.30
2023-02-11T08:28:37.968Z,2.35
2023-02-11T08:31:06.941Z,2.30
2023-02-11T08:33:34.454Z,2.40
2023-02-11T08:36:01.838Z,2.75
2023-02-11T08:38:28.563Z,2.60
2023-02-11T08:40:55.255Z,2.40
2023-02-11T08:43:23.241Z,2.55
2023-02-11T08:45:50.273Z,2.47
2023-02-11T08:48:17.234Z,2.17
2023-02-11T08:50:43.992Z,2.28
2023-02-11T08:53:10.681Z,2.10
2023-02-11T08:55:37.375Z,2.60
2023-02-11T08:58:04.111Z,2.45
2023-02-11T09:00:31.242Z,2.20
2023-02-11T09:02:57.993Z,2.47
2023-02-11T09:05:24.751Z,2.17
2023-02-11T09:07:51.449Z,2.40
2023-02-11T09:10:18.269Z,2.38
2023-02-11T09:12:45.010Z,2.50
2023-02-11T09:15:11.705Z,2.40
2023-02-11T09:17:38.406Z,2.50
2023-02-11T09:20:05.612Z,2.15
2023-02-11T09:22:32.321Z,2.70
2023-02-11T09:24:59.032Z,2.50
2023-02-11T09:27:25.798Z,2.80
2023-02-11T09:29:52.491Z,2.70
2023-02-11T09:32:19.198Z,2.83
2023-02-11T09:34:45.915Z,3.40
2023-02-11T09:37:12.686Z,3.08
2023-02-11T09:39:39.436Z,3.40
2023-02-11T09:42:24.251Z,3.40
2023-02-11T09:44:52.528Z,3.20
2023-02-11T09:47:28.759Z,3.20
2023-02-11T09:50:13.948Z,3.47
2023-02-11T09:52:47.757Z,3.70
2023-02-11T09:55:42.728Z,3.40
2023-02-11T09:58:19.507Z,3.35
2023-02-11T10:01:03.449Z,3.30
2023-02-11T10:03:30.204Z,3.65
2023-02-11T10:06:05.190Z,3.47
2023-02-11T10:08:50.942Z,3.30
2023-02-11T10:11:32.245Z,3.28
2023-02-11T10:14:09.306Z,3.30
2023-02-11T10:17:07.497Z,3.13
2023-02-11T10:19:45.211Z,3.40
2023-02-11T10:22:20.346Z,3.70
2023-02-11T10:24:59.787Z,3.50
2023-02-11T10:27:34.866Z,3.47
2023-02-11T10:30:16.225Z,3.53
2023-02-11T10:33:01.062Z,3.85
2023-02-11T10:35:27.866Z,3.47
2023-02-11T10:37:55.973Z,3.72
2023-02-11T10:40:28.722Z,3.78
2023-02-11T10:42:59.258Z,3.95
2023-02-11T10:45:45.130Z,3.50
2023-02-11T10:48:49.443Z,3.50
2023-02-11T10:51:18.097Z,3.80
2023-02-11T10:53:46.095Z,3.75
2023-02-11T10:56:20.769Z,3.30
2023-02-11T10:58:56.952Z,3.83
2023-02-11T11:01:37.250Z,8.60
2023-02-11T11:04:04.077Z,8.50
2023-02-11T11:06:32.216Z,5.90
2023-02-11T11:08:59.258Z,5.55
2023-02-11T11:11:27.171Z,5.85
2023-02-11T11:13:53.828Z,5.07
2023-02-11T11:16:29.171Z,5.05
2023-02-11T11:19:08.227Z,5.07
2023-02-11T11:21:40.779Z,4.38
2023-02-11T11:24:14.979Z,5.10
2023-02-11T11:26:46.748Z,4.40
2023-02-11T11:29:20.684Z,4.60
2023-02-11T11:32:01.329Z,4.32
2023-02-11T11:34:38.602Z,4.13
2023-02-11T11:37:15.982Z,4.03
2023-02-11T11:39:42.843Z,4.15
2023-02-11T11:42:29.085Z,3.83
2023-02-11T11:45:20.820Z,4.00
2023-02-11T11:47:59.752Z,4.10
2023-02-11T11:50:32.484Z,3.95
2023-02-11T11:53:27.984Z,4.00
2023-02-11T11:56:07.590Z,4.38
2023-02-11T11:58:34.570Z,4.13
2023-02-11T12:01:39.197Z,3.90
2023-02-11T12:04:32.704Z,4.13
2023-02-11T12:07:20.693Z,3.78
2023-02-11T12:10:06.010Z,3.80
2023-02-11T12:12:57.276Z,4.00
2023-02-11T12:15:36.632Z,3.90
2023-02-11T12:18:19.362Z,3.90
2023-02-11T12:21:10.494Z,3.65
2023-02-11T12:23:55.384Z,3.45
2023-02-11T12:26:24.609Z,3.97
2023-02-11T12:31:37.107Z,3.63
2023-02-11T12:34:26.199Z,3.75
2023-02-11T12:37:11.650Z,4.05
2023-02-11T12:40:10.338Z,3.88
2023-02-11T12:43:17.269Z,4.22
2023-02-11T12:46:06.141Z,4.13
2023-02-11T12:48:56.495Z,4.10
2023-02-11T12:51:32.575Z,4.65
2023-02-11T12:54:25.513Z,6.50
2023-02-11T12:57:08.470Z,6.93
2023-02-11T12:59:47.748Z,7.03
2023-02-11T13:02:29.536Z,6.72
2023-02-11T13:05:12.604Z,7.13
2023-02-11T13:07:44.708Z,6.40
2023-02-11T13:10:15.501Z,6.30
2023-02-11T13:13:04.862Z,6.50
2023-02-11T13:15:31.811Z,5.93
2023-02-11T13:18:08.028Z,6.47
2023-02-11T13:21:02.468Z,5.88
2023-02-11T13:23:49.478Z,5.97
2023-02-11T13:26:31.496Z,5.65
2023-02-11T13:29:19.507Z,6.15
2023-02-11T13:31:58.741Z,5.90
2023-02-11T13:34:40.943Z,6.13
2023-02-11T13:37:26.842Z,5.20
2023-02-11T13:39:58.611Z,5.43
2023-02-11T13:42:26.002Z,5.18
2023-02-11T13:44:52.996Z,5.45
2023-02-11T13:47:25.743Z,5.70
2023-02-11T13:49:53.421Z,5.05
2023-02-11T13:52:29.878Z,5.22
2023-02-11T13:55:03.463Z,4.82
2023-02-11T13:57:33.566Z,5.45
2023-02-11T14:00:03.764Z,4.68
2023-02-11T14:02:55.768Z,4.75
2023-02-11T14:05:51.846Z,4.80
2023-02-11T14:08:39.723Z,4.55
2023-02-11T14:11:17.211Z,4.93
2023-02-11T14:13:47.456Z,5.07
2023-02-11T14:16:36.366Z,5.15
2023-02-11T14:19:04.220Z,5.32
2023-02-11T14:21:37.047Z,5.40
2023-02-11T14:24:07.048Z,5.28
2023-02-11T14:26:53.166Z,5.00
2023-02-11T14:30:02.502Z,5.60
2023-02-11T14:32:47.656Z,4.65
2023-02-11T14:35:39.552Z,4.78
2023-02-11T14:38:19.232Z,4.93
2023-02-11T14:41:02.173Z,4.80
2023-02-11T14:43:35.430Z,4.95
2023-02-11T14:46:03.280Z,4.53
2023-02-11T14:48:38.042Z,4.93
2023-02-11T14:51:15.584Z,4.85
2023-02-11T14:53:50.276Z,5.03
2023-02-11T14:56:18.495Z,4.93
2023-02-11T14:58:49.470Z,4.60
2023-02-11T15:01:31.840Z,4.32
2023-02-11T15:04:00.584Z,4.03
2023-02-11T15:06:39.212Z,4.43
2023-02-11T15:09:18.261Z,4.20
2023-02-11T15:11:47.045Z,4.80
2023-02-11T15:14:24.474Z,4.43
2023-02-11T15:16:53.508Z,4.07
2023-02-11T15:19:26.721Z,4.25
2023-02-11T15:21:54.126Z,4.55
2023-02-11T15:24:25.653Z,4.60
2023-02-11T15:27:16.311Z,4.22
2023-02-11T15:29:46.867Z,3.75
2023-02-11T15:32:16.912Z,3.92
2023-02-11T15:34:45.714Z,3.67
2023-02-11T15:37:15.052Z,4.50
2023-02-11T15:39:42.172Z,4.00
2023-02-11T15:42:17.955Z,3.92
2023-02-11T15:44:45.051Z,3.70
2023-02-11T15:47:20.720Z,4.40
2023-02-11T15:49:48.307Z,4.47
2023-02-11T15:52:22.319Z,4.25
2023-02-11T15:54:49.223Z,4.20
2023-02-11T15:57:17.740Z,4.30
2023-02-11T15:59:52.506Z,4.10
2023-02-11T16:02:19.133Z,3.95
2023-02-11T16:04:56.134Z,4.22
2023-02-11T16:07:45.204Z,4.10
2023-02-11T16:10:22.673Z,3.67
2023-02-11T16:13:07.127Z,4.00
2023-02-11T16:15:33.876Z,3.95
2023-02-11T16:18:12.389Z,4.70
2023-02-11T16:20:39.488Z,4.20
2023-02-11T16:23:07.405Z,4.30
2023-02-11T16:25:37.814Z,3.85
2023-02-11T16:28:05.422Z,4.72
2023-02-11T16:30:37.522Z,4.13
2023-02-11T16:33:05.498Z,4.15
2023-02-11T16:35:32.661Z,4.10
2023-02-11T16:37:59.386Z,4.22
2023-02-11T16:40:26.146Z,4.05
2023-02-11T16:42:53.506Z,4.45
2023-02-11T16:45:20.510Z,4.07
2023-02-11T16:47:47.441Z,4.22
2023-02-11T16:50:22.570Z,4.07
2023-02-11T16:52:49.538Z,4.20
2023-02-11T16:55:16.310Z,4.20
2023-02-11T16:57:42.995Z,4.30
2023-02-11T17:00:10.530Z,4.32
2023-02-11T17:02:37.752Z,4.32
2023-02-11T17:05:07.357Z,3.95
2023-02-11T17:07:34.112Z,4.18
2023-02-11T17:10:01.030Z,4.07
2023-02-11T17:12:27.726Z,4.47
2023-02-11T17:14:54.682Z,4.07
2023-02-11T17:17:23.623Z,4.20
2023-02-11T17:19:51.102Z,3.97
2023-02-11T17:22:18.632Z,4.15
2023-02-11T17:24:45.427Z,3.90
2023-02-11T17:27:12.524Z,3.95
2023-02-11T17:29:39.236Z,4.07
2023-02-11T17:32:06.091Z,4.30
2023-02-11T17:34:32.816Z,3.67
2023-02-11T17:37:00.180Z,3.90
2023-02-11T17:39:27.572Z,4.20
2023-02-11T17:41:55.149Z,4.00
2023-02-11T17:44:21.863Z,3.80
2023-02-11T17:46:48.652Z,3.85
2023-02-11T17:49:17.022Z,3.92
2023-02-11T17:51:43.771Z,3.75
2023-02-11T17:54:13.746Z,3.95
2023-02-11T17:56:41.101Z,4.18
2023-02-11T17:59:09.190Z,4.00
2023-02-11T18:01:37.233Z,3.97
2023-02-11T18:04:06.341Z,4.00
2023-02-11T18:06:33.826Z,3.88
2023-02-11T18:09:02.306Z,3.92
2023-02-11T18:11:32.226Z,4.03
2023-02-11T18:13:59.968Z,4.07
2023-02-11T18:16:28.937Z,4.00
2023-02-11T18:18:57.006Z,3.65
2023-02-11T18:21:24.582Z,3.58
2023-02-11T18:23:51.666Z,3.63
2023-02-11T18:26:20.137Z,3.95
2023-02-11T18:28:47.036Z,3.83
2023-02-11T18:31:14.390Z,3.50
2023-02-11T18:33:42.044Z,3.67
2023-02-11T18:36:11.698Z,3.70
2023-02-11T18:38:38.600Z,3.60
2023-02-11T18:41:05.728Z,3.80
2023-02-11T18:43:33.734Z,3.83
2023-02-11T18:46:02.104Z,3.80
2023-02-11T18:50:56.408Z,4.07
2023-02-11T18:53:24.481Z,3.97
2023-02-11T18:55:52.660Z,4.05
2023-02-11T18:58:21.285Z,3.47
2023-02-11T19:00:48.652Z,3.73
2023-02-11T19:03:15.758Z,3.90
2023-02-11T19:05:47.335Z,4.22
2023-02-11T19:08:14.600Z,3.65
2023-02-11T19:10:42.796Z,4.15
2023-02-11T19:13:10.036Z,3.95
2023-02-11T19:15:44.672Z,4.20
2023-02-11T19:18:15.570Z,3.70
2023-02-11T19:20:44.769Z,4.05
2023-02-11T19:23:11.595Z,4.13
2023-02-11T19:25:45.508Z,4.20
2023-02-11T19:28:13.038Z,3.85
2023-02-11T19:30:39.963Z,4.05
2023-02-11T19:33:09.728Z,4.18
2023-02-11T19:35:36.892Z,3.88
2023-02-11T19:38:06.428Z,3.85
2023-02-11T19:40:33.308Z,3.83
2023-02-11T19:43:00.069Z,3.97
2023-02-11T19:45:27.050Z,4.00
2023-02-11T19:47:57.407Z,4.03
2023-02-11T19:50:24.670Z,3.90
2023-02-11T19:52:51.366Z,4.15
2023-02-11T19:55:18.179Z,3.88
2023-02-11T19:57:45.005Z,3.80
2023-02-11T20:00:12.225Z,3.97
2023-02-11T20:02:40.520Z,4.30
2023-02-11T20:05:07.720Z,3.70
2023-02-11T20:07:34.869Z,3.78
2023-02-11T20:10:01.690Z,3.60
2023-02-11T20:12:28.467Z,3.83
2023-02-11T20:14:55.150Z,3.40
2023-02-11T20:17:21.883Z,3.75
2023-02-11T20:19:48.614Z,3.60
2023-02-11T20:22:15.317Z,3.72
2023-02-11T20:24:42.038Z,3.88
2023-02-11T20:27:11.332Z,3.80
2023-02-11T20:32:06.613Z,4.05
2023-02-11T20:34:33.622Z,3.70
2023-02-11T20:37:00.586Z,4.28
2023-02-11T20:39:28.134Z,4.15
2023-02-11T20:41:54.955Z,3.67
2023-02-11T20:44:22.274Z,3.33
2023-02-11T20:46:49.649Z,3.50
2023-02-11T20:49:19.820Z,3.70
2023-02-11T20:51:47.103Z,3.47
2023-02-11T20:54:19.465Z,3.63
2023-02-11T20:56:48.120Z,3.60
2023-02-11T20:59:16.660Z,4.10
2023-02-11T21:01:47.892Z,5.97
2023-02-11T21:04:17.423Z,4.60
2023-02-11T21:06:47.362Z,4.65
2023-02-11T21:09:16.810Z,4.28
2023-02-11T21:11:43.552Z,4.50
2023-02-11T21:14:11.040Z,4.05
2023-02-11T21:16:37.885Z,4.18
2023-02-11T21:19:05.367Z,4.07
2023-02-11T21:21:32.260Z,4.40
2023-02-11T21:23:59.293Z,4.20
2023-02-11T21:26:26.858Z,4.00
2023-02-11T21:28:55.054Z,3.88
2023-02-11T21:31:32.787Z,4.20
2023-02-11T21:34:00.052Z,4.00
2023-02-11T21:36:28.532Z,3.95
2023-02-11T21:38:55.234Z,4.30
2023-02-11T21:41:22.614Z,4.00
2023-02-11T21:43:50.020Z,3.63
2023-02-11T21:46:18.102Z,3.75
2023-02-11T21:48:45.022Z,3.80
2023-02-11T21:51:15.462Z,3.95
2023-02-11T21:53:42.175Z,3.72
2023-02-11T21:56:14.806Z,3.88
2023-02-11T21:58:41.883Z,3.47
2023-02-11T22:01:12.736Z,4.13
2023-02-11T22:03:39.640Z,3.70
2023-02-11T22:06:15.052Z,4.05
2023-02-11T22:08:41.993Z,3.42
2023-02-11T22:11:10.954Z,3.20
2023-02-11T22:13:37.729Z,3.50
2023-02-11T22:16:07.148Z,3.30
2023-02-11T22:18:34.228Z,3.55
2023-02-11T22:21:06.306Z,3.40
2023-02-11T22:23:33.121Z,3.15
2023-02-11T22:26:04.576Z,3.10
2023-02-11T22:28:31.353Z,3.28
2023-02-11T22:30:58.827Z,3.15
2023-02-11T22:33:26.830Z,2.95
2023-02-11T22:36:00.360Z,3.75
2023-02-11T22:38:31.599Z,3.00
2023-02-11T22:40:59.621Z,3.13
2023-02-11T22:43:27.584Z,3.60
2023-02-11T22:45:56.415Z,3.00
2023-02-11T22:48:23.668Z,3.10
2023-02-11T22:50:50.417Z,3.40
2023-02-11T22:53:17.120Z,3.10
2023-02-11T22:55:43.885Z,3.17
2023-02-11T22:58:10.993Z,3.47
2023-02-11T23:00:39.790Z,3.47
2023-02-11T23:03:08.555Z,3.10
2023-02-11T23:05:42.667Z,3.35
2023-02-11T23:08:10.950Z,3.35
2023-02-11T23:10:39.191Z,2.93
2023-02-11T23:13:07.008Z,3.58
2023-02-11T23:15:34.216Z,3.17
2023-02-11T23:18:00.964Z,3.28
2023-02-11T23:20:27.745Z,3.20
2023-02-11T23:22:54.489Z,3.20
2023-02-11T23:25:21.366Z,3.10
2023-02-11T23:27:48.085Z,3.30
2023-02-11T23:30:14.952Z,3.20
2023-02-11T23:32:41.721Z,3.00
2023-02-11T23:35:08.592Z,3.42
2023-02-11T23:37:35.295Z,3.10
2023-02-11T23:40:02.074Z,2.90
2023-02-11T23:42:29.178Z,3.30
2023-02-11T23:44:55.891Z,2.90
2023-02-11T23:47:22.670Z,3.13
2023-02-11T23:49:49.372Z,3.05
2023-02-11T23:52:16.181Z,3.20
2023-02-11T23:54:43.374Z,3.25
2023-02-11T23:57:10.133Z,3.30
2023-02-11T23:59:36.924Z,3.00
